createdAt,value
2022-08-09T00:01:48.401Z,18.15
2022-08-09T00:05:03.012Z,12.50
2022-08-09T00:07:54.875Z,19.00
2022-08-09T00:11:05.803Z,11.68
2022-08-09T00:14:10.165Z,14.53
2022-08-09T00:18:07.548Z,18.45
2022-08-09T00:20:25.039Z,15.83
2022-08-09T00:23:55.684Z,11.97
2022-08-09T00:26:42.066Z,20.85
2022-08-09T00:30:23.648Z,18.20
2022-08-09T00:32:56.277Z,14.80
2022-08-09T00:36:05.599Z,23.98
2022-08-09T00:39:17.009Z,14.55
2022-08-09T00:44:13.997Z,19.37
2022-08-09T00:45:26.329Z,16.85
2022-08-09T00:48:32.302Z,17.00
2022-08-09T00:51:42.611Z,20.10
2022-08-09T00:54:46.661Z,18.10
2022-08-09T00:57:52.317Z,20.57
2022-08-09T01:01:00.822Z,17.65
2022-08-09T01:04:09.262Z,14.68
2022-08-09T01:08:00.146Z,17.90
2022-08-09T01:11:16.053Z,16.90
2022-08-09T01:14:34.205Z,21.35
2022-08-09T01:17:49.322Z,23.40
2022-08-09T01:21:24.832Z,20.32
2022-08-09T01:25:00.837Z,20.97
2022-08-09T01:28:07.722Z,22.98
2022-08-09T01:32:30.334Z,31.65
2022-08-09T01:34:22.076Z,16.02
2022-08-09T01:38:05.871Z,20.20
2022-08-09T01:40:37.838Z,18.55
2022-08-09T01:43:51.975Z,19.10
2022-08-09T01:46:57.392Z,20.82
2022-08-09T01:50:06.565Z,20.12
2022-08-09T01:53:19.217Z,20.97
2022-08-09T01:56:20.420Z,15.68
2022-08-09T01:59:32.643Z,29.75
2022-08-09T02:02:44.048Z,23.20
2022-08-09T02:05:53.466Z,24.35
2022-08-09T02:08:59.710Z,22.45
2022-08-09T02:12:05.198Z,23.92
2022-08-09T02:15:16.780Z,18.90
2022-08-09T02:18:20.862Z,20.37
2022-08-09T02:21:29.312Z,22.42
2022-08-09T02:24:42.138Z,21.10
2022-08-09T02:27:58.276Z,22.10
2022-08-09T02:31:05.955Z,20.72
2022-08-09T02:34:40.762Z,18.75
2022-08-09T02:37:31.687Z,29.67
2022-08-09T02:40:34.093Z,25.55
2022-08-09T02:43:54.251Z,19.65
2022-08-09T02:46:47.089Z,23.83
2022-08-09T02:50:01.936Z,19.07
2022-08-09T02:53:17.279Z,25.05
2022-08-09T02:56:20.998Z,25.45
2022-08-09T02:59:36.435Z,33.65
2022-08-09T03:02:33.824Z,20.25
2022-08-09T03:05:39.844Z,26.42
2022-08-09T03:08:46.231Z,22.15
2022-08-09T03:12:08.444Z,26.87
2022-08-09T03:15:00.831Z,22.17
2022-08-09T03:18:09.871Z,25.75
2022-08-09T03:21:13.849Z,22.95
2022-08-09T03:24:31.426Z,21.35
2022-08-09T03:27:26.445Z,24.32
2022-08-09T03:30:34.088Z,20.32
2022-08-09T03:33:53.982Z,25.08
2022-08-09T03:36:58.258Z,24.47
2022-08-09T03:39:56.716Z,19.87
2022-08-09T03:43:02.012Z,23.55
2022-08-09T03:46:27.026Z,23.60
2022-08-09T03:49:17.292Z,21.10
2022-08-09T03:52:24.004Z,22.52
2022-08-09T03:55:36.271Z,19.45
2022-08-09T03:58:39.094Z,18.23
2022-08-09T04:01:45.986Z,20.27
2022-08-09T04:04:52.470Z,16.80
2022-08-09T04:07:58.629Z,16.17
2022-08-09T04:11:04.073Z,27.42
2022-08-09T04:14:53.129Z,20.52
2022-08-09T04:17:18.193Z,21.40
2022-08-09T04:20:25.614Z,22.37
2022-08-09T04:23:31.567Z,22.62
2022-08-09T04:26:38.471Z,27.82
2022-08-09T04:29:50.075Z,19.55
2022-08-09T04:32:51.646Z,20.97
2022-08-09T04:35:58.462Z,21.17
2022-08-09T04:38:57.112Z,23.80
2022-08-09T04:41:44.052Z,22.00
2022-08-09T04:44:37.372Z,16.62
2022-08-09T04:47:23.074Z,20.82
2022-08-09T04:50:19.686Z,25.08
2022-08-09T04:53:13.607Z,19.40
2022-08-09T04:56:06.338Z,24.50
2022-08-09T04:58:53.253Z,22.58
2022-08-09T05:01:47.230Z,21.33
2022-08-09T05:04:34.206Z,14.40
2022-08-09T05:07:27.712Z,18.50
2022-08-09T05:10:15.806Z,15.75
2022-08-09T05:13:07.899Z,22.87
2022-08-09T05:16:15.170Z,16.12
2022-08-09T05:19:24.461Z,17.65
2022-08-09T05:22:36.231Z,13.15
2022-08-09T05:25:36.429Z,13.95
2022-08-09T05:28:42.338Z,18.57
2022-08-09T05:31:56.271Z,12.13
2022-08-09T05:34:56.705Z,15.90
2022-08-09T05:38:21.776Z,21.12
2022-08-09T05:41:23.319Z,16.75
2022-08-09T05:44:32.872Z,11.80
2022-08-09T05:47:51.585Z,17.30
2022-08-09T05:50:51.054Z,12.82
2022-08-09T05:53:57.682Z,11.45
2022-08-09T05:57:02.792Z,18.87
2022-08-09T06:00:10.225Z,11.20
2022-08-09T06:03:20.064Z,10.90
2022-08-09T06:06:24.533Z,16.77
2022-08-09T06:09:54.400Z,12.63
2022-08-09T06:12:37.671Z,24.35
2022-08-09T06:15:43.105Z,15.83
2022-08-09T06:18:49.863Z,20.23
2022-08-09T06:21:58.645Z,16.02
2022-08-09T06:25:04.491Z,10.82
2022-08-09T06:28:12.593Z,10.32
2022-08-09T06:31:18.741Z,18.42
2022-08-09T06:34:30.702Z,19.30
2022-08-09T06:37:52.891Z,9.23
2022-08-09T06:40:41.724Z,12.23
2022-08-09T06:43:48.112Z,19.23
2022-08-09T06:46:55.793Z,16.32
2022-08-09T06:50:14.274Z,21.68
2022-08-09T06:53:09.497Z,15.40
2022-08-09T06:56:16.443Z,14.70
2022-08-09T07:00:51.245Z,13.28
2022-08-09T07:02:31.743Z,16.23
2022-08-09T07:06:02.369Z,18.98
2022-08-09T07:08:49.704Z,10.63
2022-08-09T07:11:55.092Z,15.63
2022-08-09T07:15:53.167Z,16.48
2022-08-09T07:18:10.243Z,20.92
2022-08-09T07:21:15.564Z,14.68
2022-08-09T07:24:21.867Z,14.43
2022-08-09T07:27:34.495Z,22.60
2022-08-09T07:30:36.419Z,15.00
2022-08-09T07:33:53.296Z,14.80
2022-08-09T07:36:53.503Z,14.33
2022-08-09T07:39:59.816Z,12.28
2022-08-09T07:43:16.699Z,16.32
2022-08-09T07:46:21.777Z,16.57
2022-08-09T07:49:29.451Z,18.37
2022-08-09T07:52:36.069Z,14.83
2022-08-09T07:56:05.833Z,16.82
2022-08-09T07:58:48.344Z,21.97
2022-08-09T08:01:55.933Z,20.45
2022-08-09T08:05:01.307Z,15.55
2022-08-09T08:09:00.003Z,19.55
2022-08-09T08:12:08.737Z,16.07
2022-08-09T08:14:14.260Z,24.10
2022-08-09T08:17:24.875Z,21.57
2022-08-09T08:20:32.251Z,16.07
2022-08-09T08:23:37.188Z,19.02
2022-08-09T08:26:54.668Z,15.75
2022-08-09T08:29:52.383Z,16.48
2022-08-09T08:32:59.985Z,15.65
2022-08-09T08:36:05.613Z,13.72
2022-08-09T08:39:11.066Z,13.85
2022-08-09T08:42:16.597Z,11.05
2022-08-09T08:45:37.237Z,10.38
2022-08-09T08:48:31.168Z,13.22
2022-08-09T08:51:38.688Z,8.13
2022-08-09T08:54:44.426Z,16.60
2022-08-09T08:57:57.271Z,9.43
2022-08-09T09:00:58.294Z,12.20
2022-08-09T09:04:04.135Z,11.38
2022-08-09T09:07:12.670Z,13.68
2022-08-09T09:10:21.289Z,9.48
2022-08-09T09:13:41.952Z,13.53
2022-08-09T09:16:40.296Z,10.88
2022-08-09T09:19:47.059Z,12.43
2022-08-09T09:23:10.076Z,7.72
2022-08-09T09:26:16.628Z,8.23
2022-08-09T09:29:19.052Z,9.48
2022-08-09T09:32:32.428Z,6.50
2022-08-09T09:35:33.218Z,10.30
2022-08-09T09:38:38.426Z,6.83
2022-08-09T09:41:49.890Z,6.70
2022-08-09T09:44:54.162Z,6.55
2022-08-09T09:48:01.952Z,6.85
2022-08-09T09:51:11.721Z,6.60
2022-08-09T09:54:27.002Z,11.10
2022-08-09T09:58:02.983Z,6.30
2022-08-09T10:00:43.274Z,11.45
2022-08-09T10:04:00.126Z,12.37
2022-08-09T10:07:10.046Z,9.33
2022-08-09T10:10:14.354Z,12.18
2022-08-09T10:13:42.815Z,8.20
2022-08-09T10:16:58.288Z,9.83
2022-08-09T10:19:29.650Z,10.68
2022-08-09T10:22:45.614Z,14.18
2022-08-09T10:26:04.941Z,7.33
2022-08-09T10:29:22.470Z,13.65
2022-08-09T10:35:08.050Z,6.67
2022-08-09T10:38:41.713Z,5.90
2022-08-09T10:41:21.581Z,6.55
2022-08-09T10:44:26.746Z,6.75
2022-08-09T10:48:19.402Z,5.55
2022-08-09T10:51:14.091Z,5.92
2022-08-09T10:54:21.252Z,7.08
2022-08-09T10:57:29.707Z,5.28
2022-08-09T11:01:10.977Z,3.77
2022-08-09T11:04:30.381Z,8.38
2022-08-09T11:07:57.337Z,7.62
2022-08-09T11:11:08.452Z,7.25
2022-08-09T11:14:48.897Z,5.05
2022-08-09T11:18:03.850Z,10.35
2022-08-09T11:21:05.878Z,8.10
2022-08-09T11:24:17.753Z,4.87
2022-08-09T11:28:03.857Z,9.03
2022-08-09T11:30:52.877Z,18.42
2022-08-09T11:34:04.625Z,9.00
2022-08-09T11:37:18.428Z,5.80
2022-08-09T11:40:21.504Z,6.15
2022-08-09T11:43:41.735Z,8.90
2022-08-09T11:47:10.994Z,5.62
2022-08-09T11:50:54.953Z,6.28
2022-08-09T11:53:58.835Z,6.80
2022-08-09T11:56:42.441Z,3.50
2022-08-09T11:59:46.579Z,7.92
2022-08-09T12:02:54.792Z,2.92
2022-08-09T12:06:01.730Z,5.05
2022-08-09T12:09:19.119Z,8.75
2022-08-09T12:15:49.297Z,4.08
2022-08-09T12:18:49.043Z,3.95
2022-08-09T12:22:00.808Z,6.80
2022-08-09T12:25:09.666Z,6.60
2022-08-09T12:29:12.464Z,8.40
2022-08-09T12:32:01.838Z,10.10
2022-08-09T12:34:55.763Z,5.47
2022-08-09T12:38:02.990Z,4.55
2022-08-09T12:41:09.481Z,7.15
2022-08-09T12:44:15.840Z,4.53
2022-08-09T12:47:23.308Z,7.45
2022-08-09T12:50:30.359Z,8.20
2022-08-09T12:53:53.252Z,5.35
2022-08-09T12:57:02.742Z,5.37
2022-08-09T13:00:08.184Z,11.00
2022-08-09T13:03:24.605Z,9.93
2022-08-09T13:06:23.354Z,4.80
2022-08-09T13:09:52.618Z,5.60
2022-08-09T13:13:10.919Z,7.00
2022-08-09T13:16:12.810Z,8.10
2022-08-09T13:19:19.354Z,3.15
2022-08-09T13:23:05.185Z,2.25
2022-08-09T13:25:53.069Z,1.95
2022-08-09T13:28:49.691Z,5.97
2022-08-09T13:32:25.474Z,6.50
2022-08-09T13:35:26.055Z,6.43
2022-08-09T13:38:55.805Z,6.33
2022-08-09T13:41:57.272Z,3.27
2022-08-09T13:44:48.720Z,10.95
2022-08-09T13:47:59.055Z,3.65
2022-08-09T13:51:02.105Z,7.20
2022-08-09T13:54:08.291Z,3.20
2022-08-09T13:57:35.360Z,6.90
2022-08-09T14:00:39.696Z,4.55
2022-08-09T14:04:03.339Z,2.20
2022-08-09T14:06:47.256Z,12.03
2022-08-09T14:09:54.392Z,3.72
2022-08-09T14:13:02.202Z,6.30
2022-08-09T14:16:11.265Z,6.42
2022-08-09T14:19:16.386Z,5.40
2022-08-09T14:22:23.560Z,7.40
2022-08-09T14:25:31.314Z,12.40
2022-08-09T14:28:36.777Z,3.70
2022-08-09T14:31:51.810Z,9.38
2022-08-09T14:34:55.646Z,9.05
2022-08-09T14:38:02.393Z,7.62
2022-08-09T14:41:12.824Z,7.40
2022-08-09T14:44:11.141Z,13.15
2022-08-09T14:47:29.021Z,4.28
2022-08-09T14:50:26.317Z,3.67
2022-08-09T14:53:33.382Z,6.10
2022-08-09T14:56:53.640Z,3.00
2022-08-09T14:59:48.752Z,6.65
2022-08-09T15:02:56.068Z,4.70
2022-08-09T15:06:03.962Z,8.25
2022-08-09T15:09:10.536Z,11.80
2022-08-09T15:12:16.340Z,7.67
2022-08-09T15:15:28.512Z,8.78
2022-08-09T15:18:25.399Z,5.93
2022-08-09T15:21:58.872Z,5.55
2022-08-09T15:24:27.413Z,7.17
2022-08-09T15:27:47.845Z,4.92
2022-08-09T15:30:59.254Z,14.50
2022-08-09T15:34:19.558Z,6.47
2022-08-09T15:36:56.227Z,9.53
2022-08-09T15:40:04.623Z,3.77
2022-08-09T15:43:13.446Z,9.25
2022-08-09T15:46:31.585Z,11.05
2022-08-09T15:49:23.534Z,6.55
2022-08-09T15:52:25.725Z,8.93
2022-08-09T15:55:31.308Z,9.60
2022-08-09T15:58:38.310Z,5.08
2022-08-09T16:01:41.208Z,8.45
2022-08-09T16:04:35.514Z,4.72
2022-08-09T16:07:45.769Z,8.90
2022-08-09T16:10:56.050Z,8.33
2022-08-09T16:14:02.960Z,8.90
2022-08-09T16:17:04.728Z,15.83
2022-08-09T16:20:12.745Z,7.15
2022-08-09T16:23:19.986Z,14.05
2022-08-09T16:26:34.871Z,8.70
2022-08-09T16:29:36.622Z,12.50
2022-08-09T16:33:00.737Z,11.05
2022-08-09T16:36:13.159Z,7.97
2022-08-09T16:39:14.637Z,7.12
2022-08-09T16:42:23.987Z,9.18
2022-08-09T16:45:22.003Z,11.80
2022-08-09T16:48:42.025Z,13.32
2022-08-09T16:51:35.946Z,11.30
2022-08-09T16:54:41.583Z,10.82
2022-08-09T16:58:08.568Z,6.08
2022-08-09T17:01:11.113Z,9.05
2022-08-09T17:04:28.370Z,8.58
2022-08-09T17:08:45.941Z,6.05
2022-08-09T17:10:32.837Z,11.43
2022-08-09T17:13:39.618Z,8.13
2022-08-09T17:16:46.660Z,7.67
2022-08-09T17:20:32.308Z,11.12
2022-08-09T17:22:59.023Z,9.33
2022-08-09T17:26:05.678Z,13.72
2022-08-09T17:29:20.729Z,15.78
2022-08-09T17:32:34.657Z,14.90
2022-08-09T17:35:27.314Z,9.63
2022-08-09T17:38:39.035Z,11.18
2022-08-09T17:41:41.591Z,14.38
2022-08-09T17:44:49.140Z,15.72
2022-08-09T17:48:02.400Z,20.48
2022-08-09T17:51:10.111Z,16.15
2022-08-09T17:54:10.202Z,22.22
2022-08-09T17:57:20.619Z,12.80
2022-08-09T18:00:43.970Z,19.57
2022-08-09T18:03:33.053Z,15.03
2022-08-09T18:06:39.166Z,22.80
2022-08-09T18:10:04.141Z,15.80
2022-08-09T18:13:40.195Z,18.70
2022-08-09T18:16:07.632Z,17.37
2022-08-09T18:20:56.769Z,15.68
2022-08-09T18:22:19.719Z,10.20
2022-08-09T18:25:52.478Z,14.95
2022-08-09T18:30:40.545Z,15.00
2022-08-09T18:31:55.137Z,20.88
2022-08-09T18:34:50.551Z,25.82
2022-08-09T18:37:58.149Z,17.50
2022-08-09T18:41:03.614Z,15.30
2022-08-09T18:44:12.962Z,19.20
2022-08-09T18:47:20.682Z,15.20
2022-08-09T18:50:25.056Z,18.48
2022-08-09T18:53:55.997Z,14.87
2022-08-09T18:56:39.813Z,18.87
2022-08-09T18:59:48.826Z,16.52
2022-08-09T19:02:54.270Z,14.50
2022-08-09T19:06:03.162Z,17.55
2022-08-09T19:09:07.311Z,15.18
2022-08-09T19:12:14.658Z,23.20
2022-08-09T19:15:22.814Z,14.03
2022-08-09T19:18:32.974Z,22.45
2022-08-09T19:21:52.101Z,21.07
2022-08-09T19:25:11.631Z,23.85
2022-08-09T19:27:53.712Z,28.32
2022-08-09T19:31:00.776Z,23.90
2022-08-09T19:34:06.896Z,23.38
2022-08-09T19:37:16.795Z,27.10
2022-08-09T19:40:22.918Z,31.15
2022-08-09T19:43:58.047Z,18.12
2022-08-09T19:46:50.192Z,21.50
2022-08-09T19:50:08.382Z,14.15
2022-08-09T19:52:52.622Z,21.42
2022-08-09T19:56:03.087Z,21.30
2022-08-09T19:59:06.283Z,14.45
2022-08-09T20:02:18.335Z,14.25
2022-08-09T20:05:23.758Z,17.95
2022-08-09T20:08:35.429Z,23.22
2022-08-09T20:11:48.850Z,16.75
2022-08-09T20:14:50.488Z,26.55
2022-08-09T20:17:54.310Z,20.05
2022-08-09T20:20:58.062Z,22.10
2022-08-09T20:24:04.104Z,25.50
2022-08-09T20:27:11.564Z,19.50
2022-08-09T20:30:21.856Z,22.58
2022-08-09T20:33:25.671Z,22.15
2022-08-09T20:36:33.161Z,17.62
2022-08-09T20:40:14.738Z,20.57
2022-08-09T20:43:00.366Z,13.03
2022-08-09T20:45:59.794Z,15.23
2022-08-09T20:48:56.695Z,19.25
2022-08-09T20:52:03.123Z,16.35
2022-08-09T20:55:09.333Z,14.78
2022-08-09T20:58:20.262Z,15.65
2022-08-09T21:01:34.539Z,12.13
2022-08-09T21:05:49.408Z,25.27
2022-08-09T21:07:40.433Z,15.93
2022-08-09T21:10:53.211Z,11.93
2022-08-09T21:13:59.703Z,19.00
2022-08-09T21:18:11.465Z,13.40
2022-08-09T21:20:22.580Z,14.47
2022-08-09T21:23:16.694Z,12.63
2022-08-09T21:26:22.771Z,14.80
2022-08-09T21:29:30.522Z,17.50
2022-08-09T21:32:33.416Z,18.45
2022-08-09T21:35:39.515Z,16.40
2022-08-09T21:38:56.927Z,18.65
2022-08-09T21:42:03.782Z,18.77
2022-08-09T21:45:03.843Z,18.25
2022-08-09T21:48:10.762Z,15.93
2022-08-09T21:51:24.250Z,19.15
2022-08-09T21:54:09.142Z,15.93
2022-08-09T21:57:59.903Z,19.92
2022-08-09T22:00:52.283Z,17.90
2022-08-09T22:03:59.797Z,15.30
2022-08-09T22:07:06.143Z,16.40
2022-08-09T22:10:12.715Z,22.00
2022-08-09T22:13:19.487Z,22.82
2022-08-09T22:16:18.928Z,19.92
2022-08-09T22:19:58.674Z,16.00
2022-08-09T22:22:33.841Z,15.72
2022-08-09T22:26:07.822Z,21.85
2022-08-09T22:28:53.846Z,18.05
2022-08-09T22:31:56.880Z,23.57
2022-08-09T22:35:02.356Z,17.02
2022-08-09T22:38:08.731Z,21.85
2022-08-09T22:41:15.096Z,22.32
2022-08-09T22:44:21.153Z,20.25
2022-08-09T22:48:16.602Z,24.37
2022-08-09T22:50:33.036Z,23.50
2022-08-09T22:53:44.327Z,27.90
2022-08-09T22:56:45.252Z,27.50
2022-08-09T22:59:58.383Z,20.10
2022-08-09T23:03:00.115Z,30.05
2022-08-09T23:06:07.365Z,25.23
2022-08-09T23:09:16.084Z,26.27
2022-08-09T23:12:21.895Z,24.87
2022-08-09T23:15:27.381Z,22.37
2022-08-09T23:18:33.190Z,16.27
2022-08-09T23:21:39.633Z,24.30
2022-08-09T23:24:45.363Z,17.73
2022-08-09T23:28:13.963Z,15.55
2022-08-09T23:31:00.407Z,22.85
2022-08-09T23:34:05.820Z,20.65
2022-08-09T23:37:11.261Z,19.65
2022-08-09T23:40:16.199Z,17.75
2022-08-09T23:43:21.533Z,22.65
2022-08-09T23:46:28.470Z,20.05
2022-08-09T23:49:34.455Z,16.97
2022-08-09T23:52:40.551Z,18.12
2022-08-09T23:55:49.363Z,19.75
2022-08-09T23:58:54.757Z,22.13
